sensor_id;sensor_type;location;lat;lon;timestamp;P1;durP1;ratioP1;P2;durP2;ratioP2
21546;SDS011;41275;51.912;4.388;2023-06-19T00:04:01;4.40;;;1.03;;
21546;SDS011;41275;51.912;4.388;2023-06-19T00:09:22;5.30;;;1.20;;
21546;SDS011;41275;51.912;4.388;2023-06-19T00:14:44;4.80;;;1.30;;
21546;SDS011;41275;51.912;4.388;2023-06-19T00:20:05;2.27;;;1.30;;
21546;SDS011;41275;51.912;4.388;2023-06-19T00:25:27;3.38;;;1.40;;
21546;SDS011;41275;51.912;4.388;2023-06-19T00:30:48;3.70;;;1.30;;
21546;SDS011;41275;51.912;4.388;2023-06-19T00:36:09;5.07;;;1.90;;
21546;SDS011;41275;51.912;4.388;2023-06-19T00:41:31;3.15;;;1.60;;
21546;SDS011;41275;51.912;4.388;2023-06-19T00:46:55;3.85;;;1.60;;
21546;SDS011;41275;51.912;4.388;2023-06-19T00:52:18;4.97;;;1.90;;
21546;SDS011;41275;51.912;4.388;2023-06-19T00:57:40;3.50;;;2.00;;
21546;SDS011;41275;51.912;4.388;2023-06-19T01:03:01;5.38;;;2.20;;
21546;SDS011;41275;51.912;4.388;2023-06-19T01:14:01;6.22;;;3.33;;
21546;SDS011;41275;51.912;4.388;2023-06-19T01:19:26;5.00;;;3.00;;
21546;SDS011;41275;51.912;4.388;2023-06-19T01:24:48;7.60;;;3.03;;
21546;SDS011;41275;51.912;4.388;2023-06-19T01:30:09;6.40;;;3.43;;
21546;SDS011;41275;51.912;4.388;2023-06-19T01:35:35;5.68;;;3.30;;
21546;SDS011;41275;51.912;4.388;2023-06-19T01:40:57;8.43;;;3.53;;
21546;SDS011;41275;51.912;4.388;2023-06-19T01:46:21;5.75;;;3.53;;
21546;SDS011;41275;51.912;4.388;2023-06-19T01:51:43;10.07;;;3.70;;
21546;SDS011;41275;51.912;4.388;2023-06-19T01:57:04;5.75;;;3.63;;
21546;SDS011;41275;51.912;4.388;2023-06-19T02:02:25;10.33;;;5.50;;
21546;SDS011;41275;51.912;4.388;2023-06-19T02:07:47;10.48;;;5.78;;
21546;SDS011;41275;51.912;4.388;2023-06-19T02:13:08;13.80;;;7.20;;
21546;SDS011;41275;51.912;4.388;2023-06-19T02:18:30;20.27;;;9.65;;
21546;SDS011;41275;51.912;4.388;2023-06-19T02:23:51;23.80;;;11.43;;
21546;SDS011;41275;51.912;4.388;2023-06-19T02:29:12;20.73;;;9.90;;
21546;SDS011;41275;51.912;4.388;2023-06-19T02:34:33;18.35;;;8.73;;
21546;SDS011;41275;51.912;4.388;2023-06-19T02:39:55;15.77;;;7.60;;
21546;SDS011;41275;51.912;4.388;2023-06-19T02:45:16;15.45;;;7.63;;
21546;SDS011;41275;51.912;4.388;2023-06-19T02:50:37;14.57;;;8.20;;
21546;SDS011;41275;51.912;4.388;2023-06-19T02:55:58;14.63;;;8.23;;
21546;SDS011;41275;51.912;4.388;2023-06-19T03:01:19;19.25;;;10.02;;
21546;SDS011;41275;51.912;4.388;2023-06-19T03:06:41;21.58;;;11.10;;
21546;SDS011;41275;51.912;4.388;2023-06-19T03:12:02;17.35;;;8.95;;
21546;SDS011;41275;51.912;4.388;2023-06-19T03:17:23;11.02;;;6.15;;
21546;SDS011;41275;51.912;4.388;2023-06-19T03:22:45;14.40;;;6.90;;
21546;SDS011;41275;51.912;4.388;2023-06-19T03:28:06;12.52;;;6.35;;
21546;SDS011;41275;51.912;4.388;2023-06-19T03:33:27;6.50;;;3.63;;
21546;SDS011;41275;51.912;4.388;2023-06-19T03:38:48;7.38;;;3.80;;
21546;SDS011;41275;51.912;4.388;2023-06-19T03:44:10;8.00;;;2.80;;
21546;SDS011;41275;51.912;4.388;2023-06-19T03:49:31;7.67;;;3.50;;
21546;SDS011;41275;51.912;4.388;2023-06-19T03:54:52;8.63;;;3.50;;
21546;SDS011;41275;51.912;4.388;2023-06-19T04:00:13;8.10;;;4.17;;
21546;SDS011;41275;51.912;4.388;2023-06-19T04:05:35;10.93;;;5.05;;
21546;SDS011;41275;51.912;4.388;2023-06-19T04:10:57;10.55;;;5.20;;
21546;SDS011;41275;51.912;4.388;2023-06-19T04:16:18;11.87;;;5.93;;
21546;SDS011;41275;51.912;4.388;2023-06-19T04:21:39;9.65;;;5.50;;
21546;SDS011;41275;51.912;4.388;2023-06-19T04:27:00;10.87;;;5.73;;
21546;SDS011;41275;51.912;4.388;2023-06-19T04:32:22;10.75;;;5.80;;
21546;SDS011;41275;51.912;4.388;2023-06-19T04:37:43;12.57;;;6.47;;
21546;SDS011;41275;51.912;4.388;2023-06-19T04:43:04;10.60;;;6.30;;
21546;SDS011;41275;51.912;4.388;2023-06-19T04:48:26;13.73;;;6.57;;
21546;SDS011;41275;51.912;4.388;2023-06-19T04:53:48;14.02;;;6.85;;
21546;SDS011;41275;51.912;4.388;2023-06-19T04:59:09;15.68;;;6.88;;
21546;SDS011;41275;51.912;4.388;2023-06-19T05:04:30;12.23;;;6.40;;
21546;SDS011;41275;51.912;4.388;2023-06-19T05:09:53;13.23;;;6.72;;
21546;SDS011;41275;51.912;4.388;2023-06-19T05:15:14;15.60;;;6.93;;
21546;SDS011;41275;51.912;4.388;2023-06-19T05:20:35;11.03;;;5.93;;
21546;SDS011;41275;51.912;4.388;2023-06-19T05:25:57;14.82;;;6.10;;
21546;SDS011;41275;51.912;4.388;2023-06-19T05:31:18;11.57;;;6.37;;
21546;SDS011;41275;51.912;4.388;2023-06-19T05:36:39;13.95;;;7.75;;
21546;SDS011;41275;51.912;4.388;2023-06-19T05:42:01;18.60;;;8.05;;
21546;SDS011;41275;51.912;4.388;2023-06-19T05:47:23;14.02;;;7.95;;
21546;SDS011;41275;51.912;4.388;2023-06-19T05:52:46;13.67;;;7.70;;
21546;SDS011;41275;51.912;4.388;2023-06-19T05:58:07;13.52;;;7.18;;
21546;SDS011;41275;51.912;4.388;2023-06-19T06:03:29;12.82;;;6.45;;
21546;SDS011;41275;51.912;4.388;2023-06-19T06:08:54;10.70;;;6.50;;
21546;SDS011;41275;51.912;4.388;2023-06-19T06:14:15;15.93;;;6.63;;
21546;SDS011;41275;51.912;4.388;2023-06-19T06:19:36;11.25;;;5.57;;
21546;SDS011;41275;51.912;4.388;2023-06-19T06:24:58;13.38;;;6.35;;
21546;SDS011;41275;51.912;4.388;2023-06-19T06:30:19;12.07;;;5.45;;
21546;SDS011;41275;51.912;4.388;2023-06-19T06:35:40;9.07;;;5.53;;
21546;SDS011;41275;51.912;4.388;2023-06-19T06:41:02;11.82;;;5.57;;
21546;SDS011;41275;51.912;4.388;2023-06-19T06:46:23;11.33;;;5.67;;
21546;SDS011;41275;51.912;4.388;2023-06-19T06:51:44;13.32;;;5.95;;
21546;SDS011;41275;51.912;4.388;2023-06-19T06:57:06;11.25;;;5.53;;
21546;SDS011;41275;51.912;4.388;2023-06-19T07:02:27;14.75;;;5.70;;
21546;SDS011;41275;51.912;4.388;2023-06-19T07:07:49;14.93;;;6.03;;
21546;SDS011;41275;51.912;4.388;2023-06-19T07:13:10;10.77;;;5.78;;
21546;SDS011;41275;51.912;4.388;2023-06-19T07:18:31;12.37;;;5.83;;
21546;SDS011;41275;51.912;4.388;2023-06-19T07:23:54;13.57;;;5.95;;
21546;SDS011;41275;51.912;4.388;2023-06-19T07:29:15;10.47;;;5.43;;
21546;SDS011;41275;51.912;4.388;2023-06-19T07:34:37;12.52;;;6.00;;
21546;SDS011;41275;51.912;4.388;2023-06-19T07:39:58;9.97;;;5.10;;
21546;SDS011;41275;51.912;4.388;2023-06-19T07:45:19;9.87;;;4.77;;
21546;SDS011;41275;51.912;4.388;2023-06-19T07:50:43;7.93;;;4.10;;
21546;SDS011;41275;51.912;4.388;2023-06-19T07:56:04;8.90;;;4.30;;
21546;SDS011;41275;51.912;4.388;2023-06-19T08:01:25;11.77;;;4.47;;
21546;SDS011;41275;51.912;4.388;2023-06-19T08:06:46;10.32;;;4.80;;
21546;SDS011;41275;51.912;4.388;2023-06-19T08:12:08;9.05;;;5.22;;
21546;SDS011;41275;51.912;4.388;2023-06-19T08:17:29;12.70;;;5.17;;
21546;SDS011;41275;51.912;4.388;2023-06-19T08:22:50;9.37;;;4.83;;
21546;SDS011;41275;51.912;4.388;2023-06-19T08:28:11;13.60;;;6.07;;
21546;SDS011;41275;51.912;4.388;2023-06-19T08:33:34;14.95;;;6.82;;
21546;SDS011;41275;51.912;4.388;2023-06-19T08:38:56;12.13;;;5.95;;
21546;SDS011;41275;51.912;4.388;2023-06-19T08:44:17;11.60;;;5.60;;
21546;SDS011;41275;51.912;4.388;2023-06-19T08:49:38;10.65;;;5.47;;
21546;SDS011;41275;51.912;4.388;2023-06-19T08:55:00;13.82;;;5.57;;
21546;SDS011;41275;51.912;4.388;2023-06-19T09:00:28;13.57;;;6.00;;
21546;SDS011;41275;51.912;4.388;2023-06-19T09:05:50;13.00;;;5.18;;
21546;SDS011;41275;51.912;4.388;2023-06-19T09:11:11;12.33;;;5.50;;
21546;SDS011;41275;51.912;4.388;2023-06-19T09:16:39;16.63;;;8.80;;
21546;SDS011;41275;51.912;4.388;2023-06-19T09:22:05;16.98;;;9.40;;
21546;SDS011;41275;51.912;4.388;2023-06-19T09:27:32;14.52;;;7.75;;
21546;SDS011;41275;51.912;4.388;2023-06-19T09:32:54;13.45;;;7.65;;
21546;SDS011;41275;51.912;4.388;2023-06-19T09:38:16;18.40;;;8.88;;
21546;SDS011;41275;51.912;4.388;2023-06-19T09:43:47;15.63;;;8.98;;
21546;SDS011;41275;51.912;4.388;2023-06-19T09:49:09;19.87;;;9.30;;
21546;SDS011;41275;51.912;4.388;2023-06-19T09:54:35;16.47;;;8.93;;
21546;SDS011;41275;51.912;4.388;2023-06-19T09:59:57;16.88;;;8.05;;
21546;SDS011;41275;51.912;4.388;2023-06-19T10:05:29;15.93;;;10.10;;
21546;SDS011;41275;51.912;4.388;2023-06-19T10:10:51;17.25;;;9.07;;
21546;SDS011;41275;51.912;4.388;2023-06-19T10:16:19;16.33;;;8.68;;
21546;SDS011;41275;51.912;4.388;2023-06-19T10:21:45;15.00;;;8.50;;
21546;SDS011;41275;51.912;4.388;2023-06-19T10:27:07;15.23;;;8.30;;
21546;SDS011;41275;51.912;4.388;2023-06-19T10:32:31;13.80;;;6.30;;
21546;SDS011;41275;51.912;4.388;2023-06-19T10:37:52;12.20;;;6.53;;
21546;SDS011;41275;51.912;4.388;2023-06-19T10:43:19;12.90;;;6.60;;
21546;SDS011;41275;51.912;4.388;2023-06-19T10:48:42;14.32;;;8.25;;
21546;SDS011;41275;51.912;4.388;2023-06-19T10:54:04;14.83;;;7.20;;
21546;SDS011;41275;51.912;4.388;2023-06-19T10:59:25;18.52;;;11.43;;
21546;SDS011;41275;51.912;4.388;2023-06-19T11:04:46;13.70;;;7.20;;
21546;SDS011;41275;51.912;4.388;2023-06-19T11:10:07;15.45;;;7.50;;
21546;SDS011;41275;51.912;4.388;2023-06-19T11:15:39;14.98;;;7.50;;
21546;SDS011;41275;51.912;4.388;2023-06-19T11:21:00;13.18;;;7.70;;
21546;SDS011;41275;51.912;4.388;2023-06-19T11:26:21;12.60;;;6.57;;
21546;SDS011;41275;51.912;4.388;2023-06-19T11:31:46;9.85;;;5.78;;
21546;SDS011;41275;51.912;4.388;2023-06-19T11:37:14;9.93;;;5.80;;
21546;SDS011;41275;51.912;4.388;2023-06-19T11:42:43;10.20;;;5.30;;
21546;SDS011;41275;51.912;4.388;2023-06-19T11:48:06;9.23;;;5.18;;
21546;SDS011;41275;51.912;4.388;2023-06-19T11:53:27;9.32;;;4.93;;
21546;SDS011;41275;51.912;4.388;2023-06-19T11:58:48;8.38;;;5.32;;
21546;SDS011;41275;51.912;4.388;2023-06-19T12:04:09;13.05;;;5.03;;
21546;SDS011;41275;51.912;4.388;2023-06-19T12:09:30;8.70;;;4.90;;
21546;SDS011;41275;51.912;4.388;2023-06-19T12:14:52;10.30;;;3.83;;
21546;SDS011;41275;51.912;4.388;2023-06-19T12:20:13;7.80;;;3.30;;
21546;SDS011;41275;51.912;4.388;2023-06-19T12:25:35;6.78;;;3.63;;
21546;SDS011;41275;51.912;4.388;2023-06-19T12:30:56;7.43;;;3.78;;
21546;SDS011;41275;51.912;4.388;2023-06-19T12:36:19;7.13;;;3.20;;
21546;SDS011;41275;51.912;4.388;2023-06-19T12:41:40;10.55;;;3.50;;
21546;SDS011;41275;51.912;4.388;2023-06-19T12:47:01;8.45;;;3.50;;
21546;SDS011;41275;51.912;4.388;2023-06-19T12:52:23;6.80;;;3.10;;
21546;SDS011;41275;51.912;4.388;2023-06-19T12:57:44;8.20;;;3.60;;
21546;SDS011;41275;51.912;4.388;2023-06-19T13:03:06;9.18;;;3.13;;
21546;SDS011;41275;51.912;4.388;2023-06-19T13:08:27;5.18;;;2.95;;
21546;SDS011;41275;51.912;4.388;2023-06-19T13:13:48;7.65;;;2.90;;
21546;SDS011;41275;51.912;4.388;2023-06-19T13:19:09;6.80;;;3.20;;
21546;SDS011;41275;51.912;4.388;2023-06-19T13:24:31;6.40;;;3.20;;
21546;SDS011;41275;51.912;4.388;2023-06-19T13:29:53;6.97;;;3.07;;
21546;SDS011;41275;51.912;4.388;2023-06-19T13:35:14;6.85;;;3.75;;
21546;SDS011;41275;51.912;4.388;2023-06-19T13:40:36;8.15;;;3.80;;
21546;SDS011;41275;51.912;4.388;2023-06-19T13:45:57;7.75;;;3.55;;
21546;SDS011;41275;51.912;4.388;2023-06-19T13:51:19;7.70;;;3.42;;
21546;SDS011;41275;51.912;4.388;2023-06-19T13:56:41;5.80;;;3.13;;
21546;SDS011;41275;51.912;4.388;2023-06-19T14:02:03;8.07;;;3.53;;
21546;SDS011;41275;51.912;4.388;2023-06-19T14:07:24;7.05;;;3.30;;
21546;SDS011;41275;51.912;4.388;2023-06-19T14:12:46;6.85;;;3.38;;
21546;SDS011;41275;51.912;4.388;2023-06-19T14:18:07;8.53;;;3.37;;
21546;SDS011;41275;51.912;4.388;2023-06-19T14:23:28;7.97;;;3.58;;
21546;SDS011;41275;51.912;4.388;2023-06-19T14:28:49;6.55;;;3.47;;
21546;SDS011;41275;51.912;4.388;2023-06-19T14:34:16;7.77;;;3.20;;
21546;SDS011;41275;51.912;4.388;2023-06-19T14:39:37;8.52;;;3.15;;
21546;SDS011;41275;51.912;4.388;2023-06-19T14:44:58;7.93;;;3.40;;
21546;SDS011;41275;51.912;4.388;2023-06-19T14:50:20;7.13;;;3.47;;
21546;SDS011;41275;51.912;4.388;2023-06-19T14:55:41;8.48;;;4.60;;
21546;SDS011;41275;51.912;4.388;2023-06-19T15:01:06;9.50;;;3.83;;
21546;SDS011;41275;51.912;4.388;2023-06-19T15:06:27;7.77;;;4.00;;
21546;SDS011;41275;51.912;4.388;2023-06-19T15:11:48;9.23;;;3.65;;
21546;SDS011;41275;51.912;4.388;2023-06-19T15:17:09;7.95;;;3.67;;
21546;SDS011;41275;51.912;4.388;2023-06-19T15:22:31;8.25;;;3.70;;
21546;SDS011;41275;51.912;4.388;2023-06-19T15:27:52;7.72;;;3.55;;
21546;SDS011;41275;51.912;4.388;2023-06-19T15:33:13;5.30;;;3.13;;
21546;SDS011;41275;51.912;4.388;2023-06-19T15:38:34;6.30;;;3.03;;
21546;SDS011;41275;51.912;4.388;2023-06-19T15:43:56;7.47;;;3.47;;
21546;SDS011;41275;51.912;4.388;2023-06-19T15:49:17;6.87;;;3.60;;
21546;SDS011;41275;51.912;4.388;2023-06-19T15:54:38;5.75;;;3.15;;
21546;SDS011;41275;51.912;4.388;2023-06-19T16:00:00;7.23;;;3.50;;
21546;SDS011;41275;51.912;4.388;2023-06-19T16:05:21;10.27;;;3.45;;
21546;SDS011;41275;51.912;4.388;2023-06-19T16:10:43;9.45;;;3.33;;
21546;SDS011;41275;51.912;4.388;2023-06-19T16:16:05;7.22;;;3.08;;
21546;SDS011;41275;51.912;4.388;2023-06-19T16:21:26;9.48;;;3.65;;
21546;SDS011;41275;51.912;4.388;2023-06-19T16:26:48;7.13;;;3.28;;
21546;SDS011;41275;51.912;4.388;2023-06-19T16:32:09;8.57;;;3.53;;
21546;SDS011;41275;51.912;4.388;2023-06-19T16:37:31;7.65;;;3.30;;
21546;SDS011;41275;51.912;4.388;2023-06-19T16:42:52;8.30;;;3.27;;
21546;SDS011;41275;51.912;4.388;2023-06-19T16:48:14;10.07;;;3.30;;
21546;SDS011;41275;51.912;4.388;2023-06-19T16:53:35;13.80;;;3.53;;
21546;SDS011;41275;51.912;4.388;2023-06-19T16:58:56;6.03;;;3.07;;
21546;SDS011;41275;51.912;4.388;2023-06-19T17:04:17;6.07;;;3.10;;
21546;SDS011;41275;51.912;4.388;2023-06-19T17:09:39;7.80;;;2.97;;
21546;SDS011;41275;51.912;4.388;2023-06-19T17:15:00;6.70;;;3.30;;
21546;SDS011;41275;51.912;4.388;2023-06-19T17:20:21;6.15;;;2.85;;
21546;SDS011;41275;51.912;4.388;2023-06-19T17:25:42;6.25;;;3.00;;
21546;SDS011;41275;51.912;4.388;2023-06-19T17:31:06;6.63;;;3.15;;
21546;SDS011;41275;51.912;4.388;2023-06-19T17:36:28;6.83;;;3.33;;
21546;SDS011;41275;51.912;4.388;2023-06-19T17:41:49;6.37;;;3.23;;
21546;SDS011;41275;51.912;4.388;2023-06-19T17:47:10;8.15;;;3.17;;
21546;SDS011;41275;51.912;4.388;2023-06-19T17:52:33;8.23;;;3.25;;
21546;SDS011;41275;51.912;4.388;2023-06-19T17:57:54;6.13;;;2.97;;
21546;SDS011;41275;51.912;4.388;2023-06-19T18:03:15;6.93;;;2.90;;
21546;SDS011;41275;51.912;4.388;2023-06-19T18:08:37;5.95;;;2.70;;
21546;SDS011;41275;51.912;4.388;2023-06-19T18:13:58;4.70;;;2.50;;
21546;SDS011;41275;51.912;4.388;2023-06-19T18:19:19;7.10;;;2.92;;
21546;SDS011;41275;51.912;4.388;2023-06-19T18:24:41;5.32;;;2.67;;
21546;SDS011;41275;51.912;4.388;2023-06-19T18:30:02;5.93;;;2.80;;
21546;SDS011;41275;51.912;4.388;2023-06-19T18:35:24;8.53;;;3.03;;
21546;SDS011;41275;51.912;4.388;2023-06-19T18:40:45;4.93;;;2.80;;
21546;SDS011;41275;51.912;4.388;2023-06-19T18:46:06;5.45;;;2.85;;
21546;SDS011;41275;51.912;4.388;2023-06-19T18:51:28;7.33;;;2.63;;
21546;SDS011;41275;51.912;4.388;2023-06-19T18:56:49;5.60;;;2.70;;
21546;SDS011;41275;51.912;4.388;2023-06-19T19:02:10;8.80;;;2.50;;
21546;SDS011;41275;51.912;4.388;2023-06-19T19:07:32;7.82;;;2.30;;
21546;SDS011;41275;51.912;4.388;2023-06-19T19:12:53;5.55;;;2.63;;
21546;SDS011;41275;51.912;4.388;2023-06-19T19:18:14;6.15;;;2.70;;
21546;SDS011;41275;51.912;4.388;2023-06-19T19:23:35;5.57;;;2.55;;
21546;SDS011;41275;51.912;4.388;2023-06-19T19:28:57;7.07;;;2.33;;
21546;SDS011;41275;51.912;4.388;2023-06-19T19:34:18;6.50;;;2.53;;
21546;SDS011;41275;51.912;4.388;2023-06-19T19:39:40;6.13;;;2.47;;
21546;SDS011;41275;51.912;4.388;2023-06-19T19:45:01;5.63;;;2.70;;
21546;SDS011;41275;51.912;4.388;2023-06-19T19:50:23;7.43;;;3.38;;
21546;SDS011;41275;51.912;4.388;2023-06-19T19:55:44;5.30;;;2.42;;
21546;SDS011;41275;51.912;4.388;2023-06-19T20:01:05;4.90;;;2.13;;
21546;SDS011;41275;51.912;4.388;2023-06-19T20:06:26;5.53;;;2.85;;
21546;SDS011;41275;51.912;4.388;2023-06-19T20:11:48;5.00;;;2.30;;
21546;SDS011;41275;51.912;4.388;2023-06-19T20:17:09;7.47;;;2.60;;
21546;SDS011;41275;51.912;4.388;2023-06-19T20:22:33;5.65;;;2.33;;
21546;SDS011;41275;51.912;4.388;2023-06-19T20:27:54;6.75;;;2.40;;
21546;SDS011;41275;51.912;4.388;2023-06-19T20:33:15;8.35;;;3.95;;
21546;SDS011;41275;51.912;4.388;2023-06-19T20:38:36;5.33;;;2.80;;
21546;SDS011;41275;51.912;4.388;2023-06-19T20:43:57;4.70;;;2.60;;
21546;SDS011;41275;51.912;4.388;2023-06-19T20:49:19;6.67;;;2.40;;
21546;SDS011;41275;51.912;4.388;2023-06-19T20:54:40;6.32;;;2.40;;
21546;SDS011;41275;51.912;4.388;2023-06-19T21:00:01;5.03;;;2.33;;
21546;SDS011;41275;51.912;4.388;2023-06-19T21:05:30;4.47;;;2.10;;
21546;SDS011;41275;51.912;4.388;2023-06-19T21:10:51;4.85;;;2.17;;
21546;SDS011;41275;51.912;4.388;2023-06-19T21:16:13;6.60;;;2.45;;
21546;SDS011;41275;51.912;4.388;2023-06-19T21:21:34;5.47;;;2.57;;
21546;SDS011;41275;51.912;4.388;2023-06-19T21:26:55;4.70;;;2.07;;
21546;SDS011;41275;51.912;4.388;2023-06-19T21:32:16;4.07;;;2.17;;
21546;SDS011;41275;51.912;4.388;2023-06-19T21:37:38;4.55;;;2.03;;
21546;SDS011;41275;51.912;4.388;2023-06-19T21:42:59;4.60;;;2.10;;
21546;SDS011;41275;51.912;4.388;2023-06-19T21:48:20;6.97;;;2.20;;
21546;SDS011;41275;51.912;4.388;2023-06-19T21:53:41;6.50;;;2.33;;
21546;SDS011;41275;51.912;4.388;2023-06-19T21:59:03;5.55;;;2.10;;
21546;SDS011;41275;51.912;4.388;2023-06-19T22:04:24;5.30;;;2.63;;
21546;SDS011;41275;51.912;4.388;2023-06-19T22:09:45;7.28;;;2.63;;
21546;SDS011;41275;51.912;4.388;2023-06-19T22:15:06;5.40;;;2.22;;
21546;SDS011;41275;51.912;4.388;2023-06-19T22:20:28;5.90;;;2.53;;
21546;SDS011;41275;51.912;4.388;2023-06-19T22:25:49;6.85;;;2.78;;
21546;SDS011;41275;51.912;4.388;2023-06-19T22:31:10;6.80;;;2.70;;
21546;SDS011;41275;51.912;4.388;2023-06-19T22:36:31;8.07;;;3.10;;
21546;SDS011;41275;51.912;4.388;2023-06-19T22:41:53;8.43;;;3.10;;
21546;SDS011;41275;51.912;4.388;2023-06-19T22:47:14;6.97;;;3.28;;
21546;SDS011;41275;51.912;4.388;2023-06-19T22:52:35;5.75;;;2.90;;
21546;SDS011;41275;51.912;4.388;2023-06-19T22:57:57;6.60;;;3.20;;
21546;SDS011;41275;51.912;4.388;2023-06-19T23:03:18;8.40;;;3.57;;
21546;SDS011;41275;51.912;4.388;2023-06-19T23:08:42;7.40;;;3.60;;
21546;SDS011;41275;51.912;4.388;2023-06-19T23:14:03;9.00;;;3.50;;
21546;SDS011;41275;51.912;4.388;2023-06-19T23:19:24;6.60;;;3.17;;
21546;SDS011;41275;51.912;4.388;2023-06-19T23:24:45;7.80;;;3.60;;
21546;SDS011;41275;51.912;4.388;2023-06-19T23:30:07;7.68;;;3.63;;
21546;SDS011;41275;51.912;4.388;2023-06-19T23:35:28;7.93;;;3.67;;
21546;SDS011;41275;51.912;4.388;2023-06-19T23:40:49;7.55;;;3.83;;
21546;SDS011;41275;51.912;4.388;2023-06-19T23:46:10;7.13;;;3.63;;
21546;SDS011;41275;51.912;4.388;2023-06-19T23:51:32;6.25;;;3.20;;
21546;SDS011;41275;51.912;4.388;2023-06-19T23:56:53;8.73;;;4.23;;
